sensor_id;sensor_type;location;lat;lon;timestamp;temperature;humidity
38241;DHT22;24037;49.536;8.500;2022-10-16T00:01:09;15.40;99.90
38241;DHT22;24037;49.536;8.500;2022-10-16T00:03:37;15.40;99.90
38241;DHT22;24037;49.536;8.500;2022-10-16T00:06:04;15.40;99.90
38241;DHT22;24037;49.536;8.500;2022-10-16T00:08:31;15.40;99.90
38241;DHT22;24037;49.536;8.500;2022-10-16T00:11:09;15.40;99.90
38241;DHT22;24037;49.536;8.500;2022-10-16T00:13:37;15.40;99.90
38241;DHT22;24037;49.536;8.500;2022-10-16T00:16:04;15.40;99.90
38241;DHT22;24037;49.536;8.500;2022-10-16T00:18:31;15.40;99.90
38241;DHT22;24037;49.536;8.500;2022-10-16T00:21:09;15.40;99.90
38241;DHT22;24037;49.536;8.500;2022-10-16T00:23:36;15.40;99.90
38241;DHT22;24037;49.536;8.500;2022-10-16T00:26:05;15.30;99.90
38241;DHT22;24037;49.536;8.500;2022-10-16T00:28:32;15.30;99.90
38241;DHT22;24037;49.536;8.500;2022-10-16T00:30:58;15.30;99.90
38241;DHT22;24037;49.536;8.500;2022-10-16T00:33:25;15.30;99.90
38241;DHT22;24037;49.536;8.500;2022-10-16T00:35:51;15.20;99.90
38241;DHT22;24037;49.536;8.500;2022-10-16T00:38:17;15.20;99.90
38241;DHT22;24037;49.536;8.500;2022-10-16T00:40:43;15.20;99.90
38241;DHT22;24037;49.536;8.500;2022-10-16T00:45:59;15.20;99.90
38241;DHT22;24037;49.536;8.500;2022-10-16T00:48:26;15.20;99.90
38241;DHT22;24037;49.536;8.500;2022-10-16T00:50:53;15.20;99.90
38241;DHT22;24037;49.536;8.500;2022-10-16T00:53:19;15.20;99.90
38241;DHT22;24037;49.536;8.500;2022-10-16T00:55:45;15.20;99.90
38241;DHT22;24037;49.536;8.500;2022-10-16T00:58:12;15.20;99.90
38241;DHT22;24037;49.536;8.500;2022-10-16T01:00:38;15.20;99.90
38241;DHT22;24037;49.536;8.500;2022-10-16T01:03:31;15.20;99.90
38241;DHT22;24037;49.536;8.500;2022-10-16T01:06:22;15.20;99.90
38241;DHT22;24037;49.536;8.500;2022-10-16T01:09:36;15.20;99.90
38241;DHT22;24037;49.536;8.500;2022-10-16T01:14:15;15.20;99.90
38241;DHT22;24037;49.536;8.500;2022-10-16T01:16:55;15.20;99.90
38241;DHT22;24037;49.536;8.500;2022-10-16T01:20:35;15.30;99.90
38241;DHT22;24037;49.536;8.500;2022-10-16T01:25:34;15.20;99.90
38241;DHT22;24037;49.536;8.500;2022-10-16T01:28:05;15.20;99.90
38241;DHT22;24037;49.536;8.500;2022-10-16T01:30:34;15.20;99.90
38241;DHT22;24037;49.536;8.500;2022-10-16T01:33:08;15.30;99.90
38241;DHT22;24037;49.536;8.500;2022-10-16T01:35:38;15.20;99.90
38241;DHT22;24037;49.536;8.500;2022-10-16T01:38:14;15.20;99.90
38241;DHT22;24037;49.536;8.500;2022-10-16T01:40:45;15.20;99.90
38241;DHT22;24037;49.536;8.500;2022-10-16T01:43:16;15.20;99.90
38241;DHT22;24037;49.536;8.500;2022-10-16T01:45:45;15.20;99.90
38241;DHT22;24037;49.536;8.500;2022-10-16T01:48:18;15.20;99.90
38241;DHT22;24037;49.536;8.500;2022-10-16T01:50:54;15.20;99.90
38241;DHT22;24037;49.536;8.500;2022-10-16T01:53:22;15.20;99.90
38241;DHT22;24037;49.536;8.500;2022-10-16T01:55:54;15.20;99.90
38241;DHT22;24037;49.536;8.500;2022-10-16T01:58:22;15.20;99.90
38241;DHT22;24037;49.536;8.500;2022-10-16T02:00:50;15.10;99.90
38241;DHT22;24037;49.536;8.500;2022-10-16T02:03:19;15.10;99.90
38241;DHT22;24037;49.536;8.500;2022-10-16T02:05:49;15.10;99.90
38241;DHT22;24037;49.536;8.500;2022-10-16T02:08:17;15.10;99.90
38241;DHT22;24037;49.536;8.500;2022-10-16T02:10:43;15.10;99.90
38241;DHT22;24037;49.536;8.500;2022-10-16T02:13:13;15.10;99.90
38241;DHT22;24037;49.536;8.500;2022-10-16T02:15:41;15.10;99.90
38241;DHT22;24037;49.536;8.500;2022-10-16T02:18:09;15.10;99.90
38241;DHT22;24037;49.536;8.500;2022-10-16T02:20:51;15.00;99.90
38241;DHT22;24037;49.536;8.500;2022-10-16T02:23:46;15.00;99.90
38241;DHT22;24037;49.536;8.500;2022-10-16T02:26:12;15.00;99.90
38241;DHT22;24037;49.536;8.500;2022-10-16T02:28:40;15.00;99.90
38241;DHT22;24037;49.536;8.500;2022-10-16T02:31:10;15.00;99.90
38241;DHT22;24037;49.536;8.500;2022-10-16T02:33:39;15.00;99.90
38241;DHT22;24037;49.536;8.500;2022-10-16T02:36:06;15.00;99.90
38241;DHT22;24037;49.536;8.500;2022-10-16T02:38:33;15.00;99.90
38241;DHT22;24037;49.536;8.500;2022-10-16T02:41:00;15.00;99.90
38241;DHT22;24037;49.536;8.500;2022-10-16T02:43:27;15.00;99.90
38241;DHT22;24037;49.536;8.500;2022-10-16T02:45:53;15.00;99.90
38241;DHT22;24037;49.536;8.500;2022-10-16T02:48:19;15.10;99.90
38241;DHT22;24037;49.536;8.500;2022-10-16T02:50:45;15.10;99.90
38241;DHT22;24037;49.536;8.500;2022-10-16T02:53:11;15.10;99.90
38241;DHT22;24037;49.536;8.500;2022-10-16T02:55:37;15.10;99.90
38241;DHT22;24037;49.536;8.500;2022-10-16T02:58:04;15.10;99.90
38241;DHT22;24037;49.536;8.500;2022-10-16T03:00:30;15.10;99.90
38241;DHT22;24037;49.536;8.500;2022-10-16T03:02:56;15.10;99.90
38241;DHT22;24037;49.536;8.500;2022-10-16T03:05:22;15.10;99.90
38241;DHT22;24037;49.536;8.500;2022-10-16T03:07:48;15.10;99.90
38241;DHT22;24037;49.536;8.500;2022-10-16T03:10:14;15.10;99.90
38241;DHT22;24037;49.536;8.500;2022-10-16T03:12:40;15.10;99.90
38241;DHT22;24037;49.536;8.500;2022-10-16T03:15:07;15.10;99.90
38241;DHT22;24037;49.536;8.500;2022-10-16T03:17:33;15.10;99.90
38241;DHT22;24037;49.536;8.500;2022-10-16T03:20:00;15.10;99.90
38241;DHT22;24037;49.536;8.500;2022-10-16T03:22:27;15.00;99.90
38241;DHT22;24037;49.536;8.500;2022-10-16T03:24:53;15.00;99.90
38241;DHT22;24037;49.536;8.500;2022-10-16T03:27:19;15.00;99.90
38241;DHT22;24037;49.536;8.500;2022-10-16T03:29:45;15.10;99.90
38241;DHT22;24037;49.536;8.500;2022-10-16T03:32:12;15.10;99.90
38241;DHT22;24037;49.536;8.500;2022-10-16T03:34:38;15.10;99.90
38241;DHT22;24037;49.536;8.500;2022-10-16T03:37:04;15.10;99.90
38241;DHT22;24037;49.536;8.500;2022-10-16T03:39:30;15.10;99.90
38241;DHT22;24037;49.536;8.500;2022-10-16T03:41:56;15.10;99.90
38241;DHT22;24037;49.536;8.500;2022-10-16T03:44:22;15.10;99.90
38241;DHT22;24037;49.536;8.500;2022-10-16T03:46:49;15.10;99.90
38241;DHT22;24037;49.536;8.500;2022-10-16T03:49:15;15.00;99.90
38241;DHT22;24037;49.536;8.500;2022-10-16T03:51:41;15.00;99.90
38241;DHT22;24037;49.536;8.500;2022-10-16T03:54:07;15.00;99.90
38241;DHT22;24037;49.536;8.500;2022-10-16T03:56:33;15.00;99.90
38241;DHT22;24037;49.536;8.500;2022-10-16T03:58:59;15.00;99.90
38241;DHT22;24037;49.536;8.500;2022-10-16T04:01:25;15.10;99.90
38241;DHT22;24037;49.536;8.500;2022-10-16T04:03:52;15.10;99.90
38241;DHT22;24037;49.536;8.500;2022-10-16T04:06:18;15.10;99.90
38241;DHT22;24037;49.536;8.500;2022-10-16T04:08:44;15.00;99.90
38241;DHT22;24037;49.536;8.500;2022-10-16T04:11:10;15.10;99.90
38241;DHT22;24037;49.536;8.500;2022-10-16T04:13:37;15.10;99.90
38241;DHT22;24037;49.536;8.500;2022-10-16T04:16:03;15.00;99.90
38241;DHT22;24037;49.536;8.500;2022-10-16T04:18:29;15.00;99.90
38241;DHT22;24037;49.536;8.500;2022-10-16T04:20:55;15.00;99.90
38241;DHT22;24037;49.536;8.500;2022-10-16T04:23:22;15.00;99.90
38241;DHT22;24037;49.536;8.500;2022-10-16T04:25:49;15.00;99.90
38241;DHT22;24037;49.536;8.500;2022-10-16T04:28:15;15.00;99.90
38241;DHT22;24037;49.536;8.500;2022-10-16T04:30:41;15.00;99.90
38241;DHT22;24037;49.536;8.500;2022-10-16T04:33:09;14.90;99.90
38241;DHT22;24037;49.536;8.500;2022-10-16T04:35:35;14.90;99.90
38241;DHT22;24037;49.536;8.500;2022-10-16T04:38:02;14.90;99.90
38241;DHT22;24037;49.536;8.500;2022-10-16T04:40:28;14.90;99.90
38241;DHT22;24037;49.536;8.500;2022-10-16T04:42:54;14.90;99.90
38241;DHT22;24037;49.536;8.500;2022-10-16T04:45:20;14.90;99.90
38241;DHT22;24037;49.536;8.500;2022-10-16T04:47:46;14.90;99.90
38241;DHT22;24037;49.536;8.500;2022-10-16T04:50:12;14.90;99.90
38241;DHT22;24037;49.536;8.500;2022-10-16T04:52:39;14.90;99.90
38241;DHT22;24037;49.536;8.500;2022-10-16T04:55:05;14.90;99.90
38241;DHT22;24037;49.536;8.500;2022-10-16T04:57:32;14.90;99.90
38241;DHT22;24037;49.536;8.500;2022-10-16T04:59:59;14.90;99.90
38241;DHT22;24037;49.536;8.500;2022-10-16T05:02:25;14.90;99.90
38241;DHT22;24037;49.536;8.500;2022-10-16T05:04:51;14.80;99.90
38241;DHT22;24037;49.536;8.500;2022-10-16T05:07:18;14.80;99.90
38241;DHT22;24037;49.536;8.500;2022-10-16T05:09:44;14.80;99.90
38241;DHT22;24037;49.536;8.500;2022-10-16T05:12:10;14.80;99.90
38241;DHT22;24037;49.536;8.500;2022-10-16T05:14:37;14.80;99.90
38241;DHT22;24037;49.536;8.500;2022-10-16T05:17:03;14.90;99.90
38241;DHT22;24037;49.536;8.500;2022-10-16T05:19:29;14.80;99.90
38241;DHT22;24037;49.536;8.500;2022-10-16T05:21:55;14.90;99.90
38241;DHT22;24037;49.536;8.500;2022-10-16T05:24:21;14.80;99.90
38241;DHT22;24037;49.536;8.500;2022-10-16T05:26:48;14.90;99.90
38241;DHT22;24037;49.536;8.500;2022-10-16T05:29:14;14.90;99.90
38241;DHT22;24037;49.536;8.500;2022-10-16T05:31:40;14.90;99.90
38241;DHT22;24037;49.536;8.500;2022-10-16T05:34:06;14.90;99.90
38241;DHT22;24037;49.536;8.500;2022-10-16T05:36:32;14.90;99.90
38241;DHT22;24037;49.536;8.500;2022-10-16T05:38:58;14.90;99.90
38241;DHT22;24037;49.536;8.500;2022-10-16T05:41:25;14.90;99.90
38241;DHT22;24037;49.536;8.500;2022-10-16T05:43:52;14.90;99.90
38241;DHT22;24037;49.536;8.500;2022-10-16T05:46:19;14.90;99.90
38241;DHT22;24037;49.536;8.500;2022-10-16T05:48:45;14.90;99.90
38241;DHT22;24037;49.536;8.500;2022-10-16T05:51:13;14.90;99.90
38241;DHT22;24037;49.536;8.500;2022-10-16T05:53:40;14.80;99.90
38241;DHT22;24037;49.536;8.500;2022-10-16T05:56:09;14.80;99.90
38241;DHT22;24037;49.536;8.500;2022-10-16T05:58:36;14.80;99.90
38241;DHT22;24037;49.536;8.500;2022-10-16T06:01:14;14.80;99.90
38241;DHT22;24037;49.536;8.500;2022-10-16T06:03:41;14.90;99.90
38241;DHT22;24037;49.536;8.500;2022-10-16T06:06:27;14.90;99.90
38241;DHT22;24037;49.536;8.500;2022-10-16T06:08:54;14.90;99.90
38241;DHT22;24037;49.536;8.500;2022-10-16T06:11:26;14.90;99.90
38241;DHT22;24037;49.536;8.500;2022-10-16T06:13:55;14.90;99.90
38241;DHT22;24037;49.536;8.500;2022-10-16T06:16:23;14.90;99.90
38241;DHT22;24037;49.536;8.500;2022-10-16T06:18:51;14.90;99.90
38241;DHT22;24037;49.536;8.500;2022-10-16T06:21:21;14.90;99.90
38241;DHT22;24037;49.536;8.500;2022-10-16T06:23:48;15.00;99.90
38241;DHT22;24037;49.536;8.500;2022-10-16T06:26:16;15.00;99.90
38241;DHT22;24037;49.536;8.500;2022-10-16T06:28:43;15.00;99.90
38241;DHT22;24037;49.536;8.500;2022-10-16T06:31:10;15.00;99.90
38241;DHT22;24037;49.536;8.500;2022-10-16T06:33:37;15.00;99.90
38241;DHT22;24037;49.536;8.500;2022-10-16T06:36:15;15.00;99.90
38241;DHT22;24037;49.536;8.500;2022-10-16T06:38:42;15.00;99.90
38241;DHT22;24037;49.536;8.500;2022-10-16T06:41:12;15.10;99.90
38241;DHT22;24037;49.536;8.500;2022-10-16T06:43:38;15.10;99.90
38241;DHT22;24037;49.536;8.500;2022-10-16T06:46:06;15.20;99.90
38241;DHT22;24037;49.536;8.500;2022-10-16T06:48:36;15.10;99.90
38241;DHT22;24037;49.536;8.500;2022-10-16T06:51:08;15.10;99.90
38241;DHT22;24037;49.536;8.500;2022-10-16T06:53:36;15.10;99.90
38241;DHT22;24037;49.536;8.500;2022-10-16T06:56:10;15.20;99.90
38241;DHT22;24037;49.536;8.500;2022-10-16T06:58:37;15.20;99.90
38241;DHT22;24037;49.536;8.500;2022-10-16T07:01:04;15.20;99.90
38241;DHT22;24037;49.536;8.500;2022-10-16T07:03:31;15.20;99.90
38241;DHT22;24037;49.536;8.500;2022-10-16T07:06:00;15.20;99.90
38241;DHT22;24037;49.536;8.500;2022-10-16T07:08:27;15.20;99.90
38241;DHT22;24037;49.536;8.500;2022-10-16T07:11:04;15.20;99.90
38241;DHT22;24037;49.536;8.500;2022-10-16T07:13:38;15.20;99.90
38241;DHT22;24037;49.536;8.500;2022-10-16T07:16:06;15.30;99.90
38241;DHT22;24037;49.536;8.500;2022-10-16T07:18:32;15.30;99.90
38241;DHT22;24037;49.536;8.500;2022-10-16T07:21:18;15.40;99.90
38241;DHT22;24037;49.536;8.500;2022-10-16T07:23:50;15.40;99.90
38241;DHT22;24037;49.536;8.500;2022-10-16T07:26:17;15.50;99.90
38241;DHT22;24037;49.536;8.500;2022-10-16T07:28:43;15.60;99.90
38241;DHT22;24037;49.536;8.500;2022-10-16T07:31:11;15.70;99.90
38241;DHT22;24037;49.536;8.500;2022-10-16T07:33:40;15.80;99.90
38241;DHT22;24037;49.536;8.500;2022-10-16T07:36:09;15.90;99.90
38241;DHT22;24037;49.536;8.500;2022-10-16T07:38:35;15.90;99.90
38241;DHT22;24037;49.536;8.500;2022-10-16T07:41:03;15.80;99.90
38241;DHT22;24037;49.536;8.500;2022-10-16T07:43:31;15.80;99.90
38241;DHT22;24037;49.536;8.500;2022-10-16T07:45:58;15.70;99.90
38241;DHT22;24037;49.536;8.500;2022-10-16T07:48:27;15.70;99.90
38241;DHT22;24037;49.536;8.500;2022-10-16T07:50:57;15.70;99.90
38241;DHT22;24037;49.536;8.500;2022-10-16T07:53:24;15.60;99.90
38241;DHT22;24037;49.536;8.500;2022-10-16T07:55:50;15.70;99.90
38241;DHT22;24037;49.536;8.500;2022-10-16T07:58:16;15.70;99.90
38241;DHT22;24037;49.536;8.500;2022-10-16T08:00:42;15.70;99.90
38241;DHT22;24037;49.536;8.500;2022-10-16T08:03:08;15.80;99.90
38241;DHT22;24037;49.536;8.500;2022-10-16T08:05:35;15.80;99.90
38241;DHT22;24037;49.536;8.500;2022-10-16T08:08:02;15.80;99.90
38241;DHT22;24037;49.536;8.500;2022-10-16T08:10:28;15.70;99.90
38241;DHT22;24037;49.536;8.500;2022-10-16T08:12:55;15.70;99.90
38241;DHT22;24037;49.536;8.500;2022-10-16T08:15:21;15.70;99.90
38241;DHT22;24037;49.536;8.500;2022-10-16T08:17:55;15.70;99.90
38241;DHT22;24037;49.536;8.500;2022-10-16T08:20:21;15.70;99.90
38241;DHT22;24037;49.536;8.500;2022-10-16T08:22:48;15.60;99.90
38241;DHT22;24037;49.536;8.500;2022-10-16T08:25:14;15.70;99.90
38241;DHT22;24037;49.536;8.500;2022-10-16T08:27:40;15.60;99.90
38241;DHT22;24037;49.536;8.500;2022-10-16T08:30:07;15.60;99.90
38241;DHT22;24037;49.536;8.500;2022-10-16T08:32:33;15.60;99.90
38241;DHT22;24037;49.536;8.500;2022-10-16T08:34:59;15.70;99.90
38241;DHT22;24037;49.536;8.500;2022-10-16T08:37:30;15.60;99.90
38241;DHT22;24037;49.536;8.500;2022-10-16T08:39:56;15.60;99.90
38241;DHT22;24037;49.536;8.500;2022-10-16T08:47:48;15.70;99.90
38241;DHT22;24037;49.536;8.500;2022-10-16T08:50:27;15.60;99.90
38241;DHT22;24037;49.536;8.500;2022-10-16T08:52:54;15.60;99.90
38241;DHT22;24037;49.536;8.500;2022-10-16T08:58:14;15.50;99.90
38241;DHT22;24037;49.536;8.500;2022-10-16T09:00:42;15.40;99.90
38241;DHT22;24037;49.536;8.500;2022-10-16T09:03:35;15.30;99.90
38241;DHT22;24037;49.536;8.500;2022-10-16T09:06:16;15.30;99.90
38241;DHT22;24037;49.536;8.500;2022-10-16T09:11:38;15.30;99.90
38241;DHT22;24037;49.536;8.500;2022-10-16T09:17:00;15.70;99.90
38241;DHT22;24037;49.536;8.500;2022-10-16T09:19:44;15.70;99.90
38241;DHT22;24037;49.536;8.500;2022-10-16T09:22:17;15.80;99.90
38241;DHT22;24037;49.536;8.500;2022-10-16T09:24:44;15.90;99.90
38241;DHT22;24037;49.536;8.500;2022-10-16T09:27:14;16.00;99.90
38241;DHT22;24037;49.536;8.500;2022-10-16T09:29:41;16.20;99.90
38241;DHT22;24037;49.536;8.500;2022-10-16T09:32:15;16.40;99.90
38241;DHT22;24037;49.536;8.500;2022-10-16T09:34:49;16.60;99.90
38241;DHT22;24037;49.536;8.500;2022-10-16T09:37:19;16.80;99.90
38241;DHT22;24037;49.536;8.500;2022-10-16T09:39:53;17.00;99.90
38241;DHT22;24037;49.536;8.500;2022-10-16T09:42:35;17.00;99.90
38241;DHT22;24037;49.536;8.500;2022-10-16T09:45:03;16.90;99.90
38241;DHT22;24037;49.536;8.500;2022-10-16T09:47:31;17.10;99.90
38241;DHT22;24037;49.536;8.500;2022-10-16T09:49:59;17.20;99.90
38241;DHT22;24037;49.536;8.500;2022-10-16T09:52:29;17.10;99.90
38241;DHT22;24037;49.536;8.500;2022-10-16T09:55:12;17.00;99.90
38241;DHT22;24037;49.536;8.500;2022-10-16T09:57:52;17.00;99.90
38241;DHT22;24037;49.536;8.500;2022-10-16T10:00:21;17.00;99.90
38241;DHT22;24037;49.536;8.500;2022-10-16T10:02:47;17.00;99.90
38241;DHT22;24037;49.536;8.500;2022-10-16T10:05:25;17.20;99.90
38241;DHT22;24037;49.536;8.500;2022-10-16T10:08:00;17.10;99.90
38241;DHT22;24037;49.536;8.500;2022-10-16T10:10:30;17.30;99.90
38241;DHT22;24037;49.536;8.500;2022-10-16T10:12:58;17.30;99.90
38241;DHT22;24037;49.536;8.500;2022-10-16T10:15:32;17.30;99.90
38241;DHT22;24037;49.536;8.500;2022-10-16T10:17:59;17.40;99.90
38241;DHT22;24037;49.536;8.500;2022-10-16T10:20:31;17.60;99.90
38241;DHT22;24037;49.536;8.500;2022-10-16T10:23:01;17.70;99.90
38241;DHT22;24037;49.536;8.500;2022-10-16T10:26:20;17.60;99.90
38241;DHT22;24037;49.536;8.500;2022-10-16T10:28:59;17.50;99.90
38241;DHT22;24037;49.536;8.500;2022-10-16T10:36:46;17.60;99.90
38241;DHT22;24037;49.536;8.500;2022-10-16T10:39:36;17.50;99.90
38241;DHT22;24037;49.536;8.500;2022-10-16T11:02:15;18.00;99.90
38241;DHT22;24037;49.536;8.500;2022-10-16T11:05:07;18.20;99.90
38241;DHT22;24037;49.536;8.500;2022-10-16T11:07:49;18.40;99.90
38241;DHT22;24037;49.536;8.500;2022-10-16T11:10:21;18.20;99.90
38241;DHT22;24037;49.536;8.500;2022-10-16T11:12:55;17.90;99.90
38241;DHT22;24037;49.536;8.500;2022-10-16T11:15:37;17.90;99.90
38241;DHT22;24037;49.536;8.500;2022-10-16T11:18:21;18.10;99.90
38241;DHT22;24037;49.536;8.500;2022-10-16T11:20:57;18.20;99.90
38241;DHT22;24037;49.536;8.500;2022-10-16T11:24:15;18.20;99.90
38241;DHT22;24037;49.536;8.500;2022-10-16T11:26:24;18.00;99.90
38241;DHT22;24037;49.536;8.500;2022-10-16T11:28:54;18.00;99.90
38241;DHT22;24037;49.536;8.500;2022-10-16T11:31:40;18.20;99.90
38241;DHT22;24037;49.536;8.500;2022-10-16T11:34:28;18.40;99.90
38241;DHT22;24037;49.536;8.500;2022-10-16T11:37:05;18.60;99.90
38241;DHT22;24037;49.536;8.500;2022-10-16T11:39:34;18.70;99.90
38241;DHT22;24037;49.536;8.500;2022-10-16T11:42:36;18.80;99.90
38241;DHT22;24037;49.536;8.500;2022-10-16T11:45:29;18.60;99.90
38241;DHT22;24037;49.536;8.500;2022-10-16T11:50:52;18.50;99.90
38241;DHT22;24037;49.536;8.500;2022-10-16T11:56:00;18.50;99.90
38241;DHT22;24037;49.536;8.500;2022-10-16T11:59:02;18.60;99.90
38241;DHT22;24037;49.536;8.500;2022-10-16T12:06:48;19.00;99.90
38241;DHT22;24037;49.536;8.500;2022-10-16T12:09:39;18.90;99.90
38241;DHT22;24037;49.536;8.500;2022-10-16T12:12:24;19.00;99.90
38241;DHT22;24037;49.536;8.500;2022-10-16T12:17:47;19.00;99.90
38241;DHT22;24037;49.536;8.500;2022-10-16T12:23:06;19.00;99.90
38241;DHT22;24037;49.536;8.500;2022-10-16T12:25:37;19.10;99.90
38241;DHT22;24037;49.536;8.500;2022-10-16T12:30:42;19.30;99.90
38241;DHT22;24037;49.536;8.500;2022-10-16T12:33:29;19.30;99.90
38241;DHT22;24037;49.536;8.500;2022-10-16T12:35:59;19.40;99.90
38241;DHT22;24037;49.536;8.500;2022-10-16T12:41:01;19.50;99.90
38241;DHT22;24037;49.536;8.500;2022-10-16T12:43:42;19.60;99.90
38241;DHT22;24037;49.536;8.500;2022-10-16T12:48:36;19.70;99.90
38241;DHT22;24037;49.536;8.500;2022-10-16T12:54:03;20.00;99.90
38241;DHT22;24037;49.536;8.500;2022-10-16T13:05:26;20.30;99.90
38241;DHT22;24037;49.536;8.500;2022-10-16T13:19:27;20.10;99.90
38241;DHT22;24037;49.536;8.500;2022-10-16T13:22:03;20.00;99.90
38241;DHT22;24037;49.536;8.500;2022-10-16T13:24:55;19.90;99.90
38241;DHT22;24037;49.536;8.500;2022-10-16T13:30:26;19.80;99.90
38241;DHT22;24037;49.536;8.500;2022-10-16T13:33:17;19.70;99.90
38241;DHT22;24037;49.536;8.500;2022-10-16T13:35:53;19.70;99.90
38241;DHT22;24037;49.536;8.500;2022-10-16T13:38:22;19.70;99.90
38241;DHT22;24037;49.536;8.500;2022-10-16T13:41:00;19.70;99.90
38241;DHT22;24037;49.536;8.500;2022-10-16T13:43:36;19.80;99.90
38241;DHT22;24037;49.536;8.500;2022-10-16T13:46:13;19.80;99.90
38241;DHT22;24037;49.536;8.500;2022-10-16T13:48:40;19.90;99.90
38241;DHT22;24037;49.536;8.500;2022-10-16T13:51:16;19.90;99.90
38241;DHT22;24037;49.536;8.500;2022-10-16T13:53:43;20.00;99.90
38241;DHT22;24037;49.536;8.500;2022-10-16T13:56:15;20.10;99.90
38241;DHT22;24037;49.536;8.500;2022-10-16T13:58:42;20.10;99.90
38241;DHT22;24037;49.536;8.500;2022-10-16T14:01:20;20.10;99.90
38241;DHT22;24037;49.536;8.500;2022-10-16T14:03:49;20.00;99.90
38241;DHT22;24037;49.536;8.500;2022-10-16T14:06:20;20.00;99.90
38241;DHT22;24037;49.536;8.500;2022-10-16T14:08:59;20.00;99.90
38241;DHT22;24037;49.536;8.500;2022-10-16T14:11:25;20.00;99.90
38241;DHT22;24037;49.536;8.500;2022-10-16T14:13:52;19.80;99.90
38241;DHT22;24037;49.536;8.500;2022-10-16T14:16:24;19.90;99.90
38241;DHT22;24037;49.536;8.500;2022-10-16T14:19:03;19.80;99.90
38241;DHT22;24037;49.536;8.500;2022-10-16T14:21:33;19.80;99.90
38241;DHT22;24037;49.536;8.500;2022-10-16T14:24:13;19.80;99.90
38241;DHT22;24037;49.536;8.500;2022-10-16T14:26:47;19.90;99.90
38241;DHT22;24037;49.536;8.500;2022-10-16T14:29:18;19.80;99.90
38241;DHT22;24037;49.536;8.500;2022-10-16T14:31:59;19.80;99.90
38241;DHT22;24037;49.536;8.500;2022-10-16T14:37:01;19.80;99.90
38241;DHT22;24037;49.536;8.500;2022-10-16T14:39:33;19.70;99.90
38241;DHT22;24037;49.536;8.500;2022-10-16T14:42:00;19.80;99.90
38241;DHT22;24037;49.536;8.500;2022-10-16T14:44:29;19.70;99.90
38241;DHT22;24037;49.536;8.500;2022-10-16T14:46:56;19.70;99.90
38241;DHT22;24037;49.536;8.500;2022-10-16T14:49:23;19.70;99.90
38241;DHT22;24037;49.536;8.500;2022-10-16T14:51:50;19.60;99.90
38241;DHT22;24037;49.536;8.500;2022-10-16T14:54:18;19.60;99.90
38241;DHT22;24037;49.536;8.500;2022-10-16T14:56:53;19.60;99.90
38241;DHT22;24037;49.536;8.500;2022-10-16T14:59:27;19.60;99.90
38241;DHT22;24037;49.536;8.500;2022-10-16T15:01:55;19.60;99.90
38241;DHT22;24037;49.536;8.500;2022-10-16T15:04:24;19.60;99.90
38241;DHT22;24037;49.536;8.500;2022-10-16T15:06:50;19.60;99.90
38241;DHT22;24037;49.536;8.500;2022-10-16T15:09:17;19.70;99.90
38241;DHT22;24037;49.536;8.500;2022-10-16T15:11:43;19.80;99.90
38241;DHT22;24037;49.536;8.500;2022-10-16T15:14:12;19.80;99.90
38241;DHT22;24037;49.536;8.500;2022-10-16T15:16:39;19.90;99.90
38241;DHT22;24037;49.536;8.500;2022-10-16T15:19:05;20.00;99.90
38241;DHT22;24037;49.536;8.500;2022-10-16T15:21:32;20.00;99.90
38241;DHT22;24037;49.536;8.500;2022-10-16T15:23:59;20.00;99.90
38241;DHT22;24037;49.536;8.500;2022-10-16T15:26:27;19.90;99.90
38241;DHT22;24037;49.536;8.500;2022-10-16T15:28:54;19.80;99.90
38241;DHT22;24037;49.536;8.500;2022-10-16T15:31:21;19.70;99.90
38241;DHT22;24037;49.536;8.500;2022-10-16T15:33:51;19.60;99.90
38241;DHT22;24037;49.536;8.500;2022-10-16T15:36:27;19.60;99.90
38241;DHT22;24037;49.536;8.500;2022-10-16T15:38:53;19.50;99.90
38241;DHT22;24037;49.536;8.500;2022-10-16T15:41:20;19.50;99.90
38241;DHT22;24037;49.536;8.500;2022-10-16T15:43:49;19.50;99.90
38241;DHT22;24037;49.536;8.500;2022-10-16T15:46:21;19.50;99.90
38241;DHT22;24037;49.536;8.500;2022-10-16T15:48:49;19.50;99.90
38241;DHT22;24037;49.536;8.500;2022-10-16T15:51:17;19.60;99.90
38241;DHT22;24037;49.536;8.500;2022-10-16T15:53:43;19.60;99.90
38241;DHT22;24037;49.536;8.500;2022-10-16T15:56:13;19.60;99.90
38241;DHT22;24037;49.536;8.500;2022-10-16T15:58:41;19.50;99.90
38241;DHT22;24037;49.536;8.500;2022-10-16T16:01:07;19.50;99.90
38241;DHT22;24037;49.536;8.500;2022-10-16T16:03:36;19.40;99.90
38241;DHT22;24037;49.536;8.500;2022-10-16T16:06:08;19.40;99.90
38241;DHT22;24037;49.536;8.500;2022-10-16T16:08:35;19.40;99.90
38241;DHT22;24037;49.536;8.500;2022-10-16T16:13:32;19.20;99.90
38241;DHT22;24037;49.536;8.500;2022-10-16T16:15:58;19.20;99.90
38241;DHT22;24037;49.536;8.500;2022-10-16T16:18:26;19.10;99.90
38241;DHT22;24037;49.536;8.500;2022-10-16T16:20:52;18.90;99.90
38241;DHT22;24037;49.536;8.500;2022-10-16T16:23:19;18.80;99.90
38241;DHT22;24037;49.536;8.500;2022-10-16T16:26:09;18.60;99.90
38241;DHT22;24037;49.536;8.500;2022-10-16T16:28:37;18.50;99.90
38241;DHT22;24037;49.536;8.500;2022-10-16T16:31:04;18.30;99.90
38241;DHT22;24037;49.536;8.500;2022-10-16T16:33:30;18.20;99.90
38241;DHT22;24037;49.536;8.500;2022-10-16T16:36:02;18.10;99.90
38241;DHT22;24037;49.536;8.500;2022-10-16T16:38:29;18.00;99.90
38241;DHT22;24037;49.536;8.500;2022-10-16T16:40:55;17.90;99.90
38241;DHT22;24037;49.536;8.500;2022-10-16T16:43:24;17.80;99.90
38241;DHT22;24037;49.536;8.500;2022-10-16T16:45:51;17.70;99.90
38241;DHT22;24037;49.536;8.500;2022-10-16T16:48:18;17.60;99.90
38241;DHT22;24037;49.536;8.500;2022-10-16T16:50:45;17.50;99.90
38241;DHT22;24037;49.536;8.500;2022-10-16T16:53:11;17.40;99.90
38241;DHT22;24037;49.536;8.500;2022-10-16T16:55:37;17.40;99.90
38241;DHT22;24037;49.536;8.500;2022-10-16T16:58:03;17.40;99.90
38241;DHT22;24037;49.536;8.500;2022-10-16T17:00:30;17.40;99.90
38241;DHT22;24037;49.536;8.500;2022-10-16T17:02:57;17.30;99.90
38241;DHT22;24037;49.536;8.500;2022-10-16T17:05:23;17.10;99.90
38241;DHT22;24037;49.536;8.500;2022-10-16T17:07:49;17.00;99.90
38241;DHT22;24037;49.536;8.500;2022-10-16T17:10:15;16.90;99.90
38241;DHT22;24037;49.536;8.500;2022-10-16T17:12:41;16.80;99.90
38241;DHT22;24037;49.536;8.500;2022-10-16T17:15:08;16.70;99.90
38241;DHT22;24037;49.536;8.500;2022-10-16T17:17:34;16.60;99.90
38241;DHT22;24037;49.536;8.500;2022-10-16T17:20:01;16.50;99.90
38241;DHT22;24037;49.536;8.500;2022-10-16T17:22:27;16.40;99.90
38241;DHT22;24037;49.536;8.500;2022-10-16T17:24:53;16.30;99.90
38241;DHT22;24037;49.536;8.500;2022-10-16T17:27:19;16.20;99.90
38241;DHT22;24037;49.536;8.500;2022-10-16T17:29:50;16.10;99.90
38241;DHT22;24037;49.536;8.500;2022-10-16T17:32:16;15.90;99.90